createdAt,value
2019-02-12T00:00:52.210Z,100.00
2019-02-12T00:03:42.065Z,100.00
2019-02-12T00:06:31.538Z,100.00
2019-02-12T00:09:20.903Z,100.00
2019-02-12T00:12:10.518Z,100.00
2019-02-12T00:15:00.394Z,100.00
2019-02-12T00:17:49.665Z,100.00
2019-02-12T00:20:38.640Z,100.00
2019-02-12T00:23:31.878Z,100.00
2019-02-12T00:26:21.504Z,100.00
2019-02-12T00:29:11.006Z,100.00
2019-02-12T00:32:00.095Z,100.00
2019-02-12T00:34:48.921Z,100.00
2019-02-12T00:37:37.845Z,100.00
2019-02-12T00:40:27.095Z,100.00
2019-02-12T00:43:16.060Z,100.00
2019-02-12T00:46:05.654Z,100.00
2019-02-12T00:48:55.116Z,100.00
2019-02-12T00:51:44.587Z,100.00
2019-02-12T00:54:33.631Z,100.00
2019-02-12T00:57:22.712Z,100.00
2019-02-12T01:00:13.683Z,100.00
2019-02-12T01:03:03.108Z,100.00
2019-02-12T01:05:52.010Z,100.00
2019-02-12T01:08:41.276Z,100.00
2019-02-12T01:11:30.589Z,100.00
2019-02-12T01:14:19.830Z,100.00
2019-02-12T01:17:08.978Z,100.00
2019-02-12T01:19:57.925Z,100.00
2019-02-12T01:22:47.170Z,100.00
2019-02-12T01:25:36.392Z,100.00
2019-02-12T01:28:25.960Z,100.00
2019-02-12T01:31:20.190Z,100.00
2019-02-12T01:34:08.866Z,100.00
2019-02-12T01:36:58.144Z,100.00
2019-02-12T01:39:47.823Z,100.00
2019-02-12T01:42:37.326Z,100.00
2019-02-12T01:45:26.936Z,100.00
2019-02-12T01:48:16.223Z,100.00
2019-02-12T01:51:08.055Z,100.00
2019-02-12T01:53:56.902Z,100.00
2019-02-12T01:56:51.430Z,100.00
2019-02-12T01:59:40.747Z,100.00
2019-02-12T02:02:30.414Z,100.00
2019-02-12T02:05:19.958Z,100.00
2019-02-12T02:08:09.369Z,100.00
2019-02-12T02:10:58.742Z,100.00
2019-02-12T02:13:47.771Z,100.00
2019-02-12T02:16:37.016Z,100.00
2019-02-12T02:19:26.710Z,100.00
2019-02-12T02:22:15.917Z,100.00
2019-02-12T02:25:05.842Z,100.00
2019-02-12T02:27:55.483Z,100.00
2019-02-12T02:30:44.896Z,100.00
2019-02-12T02:33:34.206Z,100.00
2019-02-12T02:36:23.808Z,100.00
2019-02-12T02:39:13.027Z,100.00
2019-02-12T02:42:02.356Z,100.00
2019-02-12T02:44:51.767Z,100.00
2019-02-12T02:47:41.659Z,100.00
2019-02-12T02:50:31.082Z,100.00
2019-02-12T02:53:20.595Z,100.00
2019-02-12T02:56:09.787Z,100.00
2019-02-12T02:58:59.028Z,100.00
2019-02-12T03:01:48.475Z,100.00
2019-02-12T03:04:38.132Z,100.00
2019-02-12T03:07:27.323Z,100.00
2019-02-12T03:10:16.671Z,100.00
2019-02-12T03:13:05.878Z,100.00
2019-02-12T03:15:54.759Z,100.00
2019-02-12T03:18:44.198Z,100.00
2019-02-12T03:21:33.624Z,100.00
2019-02-12T03:24:23.170Z,98.63
2019-02-12T03:27:12.726Z,99.67
2019-02-12T03:30:01.451Z,99.42
2019-02-12T03:32:50.772Z,99.08
2019-02-12T03:35:40.187Z,99.12
2019-02-12T03:38:29.965Z,98.18
2019-02-12T03:41:19.059Z,98.49
2019-02-12T03:44:08.220Z,97.44
2019-02-12T03:46:57.463Z,99.49
2019-02-12T03:49:46.755Z,100.00
2019-02-12T03:52:36.142Z,99.84
2019-02-12T03:55:25.543Z,97.95
2019-02-12T03:58:14.584Z,100.00
2019-02-12T04:01:04.048Z,96.45
2019-02-12T04:03:53.632Z,93.41
2019-02-12T04:06:43.257Z,94.55
2019-02-12T04:09:32.511Z,94.55
2019-02-12T04:12:21.914Z,92.51
2019-02-12T04:15:11.422Z,93.28
2019-02-12T04:18:01.229Z,92.89
2019-02-12T04:20:50.658Z,92.19
2019-02-12T04:23:39.490Z,90.93
2019-02-12T04:26:28.810Z,91.54
2019-02-12T04:29:18.294Z,90.79
2019-02-12T04:32:07.639Z,90.77
2019-02-12T04:34:56.722Z,90.98
2019-02-12T04:37:45.948Z,89.29
2019-02-12T04:40:35.488Z,90.84
2019-02-12T04:43:24.499Z,88.38
2019-02-12T04:46:13.973Z,86.57
2019-02-12T04:49:03.349Z,88.28
2019-02-12T04:51:52.841Z,83.55
2019-02-12T04:54:42.100Z,83.51
2019-02-12T04:57:31.717Z,82.92
2019-02-12T05:00:20.937Z,85.80
2019-02-12T05:03:10.041Z,83.49
2019-02-12T05:05:59.442Z,85.15
2019-02-12T05:09:31.316Z,82.99
2019-02-12T05:12:22.003Z,82.81
2019-02-12T05:15:11.572Z,82.60
2019-02-12T05:18:00.798Z,85.59
2019-02-12T05:20:50.269Z,84.49
2019-02-12T05:23:39.828Z,82.49
2019-02-12T05:26:28.903Z,84.72
2019-02-12T05:29:18.500Z,84.18
2019-02-12T05:32:07.091Z,82.29
2019-02-12T05:34:56.367Z,82.84
2019-02-12T05:37:48.785Z,82.91
2019-02-12T05:40:38.645Z,83.13
2019-02-12T05:43:27.964Z,81.94
2019-02-12T05:46:17.310Z,83.83
2019-02-12T05:49:06.705Z,82.72
2019-02-12T05:51:56.273Z,83.41
2019-02-12T05:54:45.390Z,83.06
2019-02-12T05:57:34.818Z,80.51
2019-02-12T06:00:26.647Z,84.53
2019-02-12T06:03:16.279Z,78.78
2019-02-12T06:06:05.539Z,79.21
2019-02-12T06:08:54.823Z,80.68
2019-02-12T06:11:43.931Z,78.93
2019-02-12T06:14:33.193Z,79.70
2019-02-12T06:17:22.387Z,79.62
2019-02-12T06:20:13.079Z,79.50
2019-02-12T06:23:04.072Z,80.87
2019-02-12T06:25:52.623Z,80.93
2019-02-12T06:28:41.947Z,79.89
2019-02-12T06:31:31.211Z,81.48
2019-02-12T06:34:20.557Z,78.69
2019-02-12T06:37:10.168Z,78.85
2019-02-12T06:39:59.596Z,77.54
2019-02-12T06:42:48.880Z,76.80
2019-02-12T06:45:38.065Z,75.45
2019-02-12T06:48:27.366Z,76.16
2019-02-12T06:51:16.551Z,77.02
2019-02-12T06:54:05.913Z,76.68
2019-02-12T06:56:55.617Z,77.32
2019-02-12T06:59:44.824Z,76.62
2019-02-12T07:03:10.951Z,76.91
2019-02-12T07:06:16.105Z,76.19
2019-02-12T07:09:36.103Z,77.57
2019-02-12T07:13:03.361Z,77.11
2019-02-12T07:16:14.497Z,77.18
2019-02-12T07:19:42.964Z,77.35
2019-02-12T07:22:59.911Z,77.08
2019-02-12T07:26:09.079Z,77.13
2019-02-12T07:29:23.635Z,77.07
2019-02-12T07:33:13.163Z,77.71
2019-02-12T07:36:26.958Z,76.33
2019-02-12T07:40:15.312Z,76.04
2019-02-12T07:43:55.532Z,75.21
2019-02-12T07:47:24.797Z,74.88
2019-02-12T07:50:58.177Z,75.05
2019-02-12T07:54:13.709Z,75.13
2019-02-12T07:57:27.831Z,74.44
2019-02-12T08:00:42.217Z,74.83
2019-02-12T08:04:05.018Z,73.27
2019-02-12T08:07:34.190Z,74.18
2019-02-12T08:11:06.031Z,73.04
2019-02-12T08:14:26.453Z,72.32
2019-02-12T08:18:08.039Z,72.07
2019-02-12T08:21:20.760Z,71.73
2019-02-12T08:24:57.243Z,72.59
2019-02-12T08:28:39.753Z,72.27
2019-02-12T08:31:38.546Z,71.39
2019-02-12T08:34:57.373Z,70.93
2019-02-12T08:38:29.120Z,71.34
2019-02-12T08:41:59.201Z,71.79
2019-02-12T08:45:30.830Z,70.41
2019-02-12T08:49:07.245Z,70.64
2019-02-12T08:56:17.022Z,69.01
2019-02-12T08:59:44.400Z,68.37
2019-02-12T09:03:24.960Z,69.26
2019-02-12T09:07:04.303Z,68.03
2019-02-12T09:10:40.984Z,68.00
2019-02-12T09:14:07.685Z,67.61
2019-02-12T09:17:41.265Z,68.15
2019-02-12T09:21:01.157Z,65.43
2019-02-12T09:24:13.264Z,65.49
2019-02-12T09:27:43.057Z,65.40
2019-02-12T09:31:12.367Z,66.68
2019-02-12T09:34:27.306Z,65.00
2019-02-12T09:37:52.744Z,64.18
2019-02-12T09:40:57.129Z,63.77
2019-02-12T09:44:36.529Z,63.56
2019-02-12T09:48:02.926Z,63.89
2019-02-12T09:51:28.597Z,63.59
2019-02-12T09:54:54.131Z,63.45
2019-02-12T09:58:12.575Z,63.98
2019-02-12T10:01:28.062Z,63.09
2019-02-12T10:04:46.723Z,62.87
2019-02-12T10:08:02.762Z,62.45
2019-02-12T10:11:35.406Z,62.74
2019-02-12T10:14:39.978Z,62.73
2019-02-12T10:18:12.831Z,62.05
2019-02-12T10:21:37.110Z,63.23
2019-02-12T10:25:07.060Z,64.25
2019-02-12T10:28:16.543Z,61.72
2019-02-12T10:31:41.053Z,61.78
2019-02-12T10:34:30.429Z,61.40
2019-02-12T10:37:19.669Z,59.48
2019-02-12T10:40:08.639Z,60.72
2019-02-12T10:42:57.854Z,63.29
2019-02-12T10:45:46.731Z,60.71
2019-02-12T10:48:37.242Z,62.88
2019-02-12T10:51:26.025Z,61.23
2019-02-12T10:54:27.718Z,61.50
2019-02-12T10:57:10.575Z,62.55
2019-02-12T10:59:59.388Z,60.81
2019-02-12T11:02:48.768Z,61.72
2019-02-12T11:05:38.160Z,61.02
2019-02-12T11:08:27.307Z,61.19
2019-02-12T11:11:16.249Z,59.85
2019-02-12T11:14:05.631Z,59.32
2019-02-12T11:16:54.692Z,60.82
2019-02-12T11:19:43.497Z,59.51
2019-02-12T11:22:33.195Z,61.31
2019-02-12T11:25:22.619Z,60.38
2019-02-12T11:28:11.796Z,60.21
2019-02-12T11:31:01.010Z,61.18
2019-02-12T11:33:49.999Z,61.87
2019-02-12T11:36:39.123Z,61.32
2019-02-12T11:39:28.521Z,61.98
2019-02-12T11:42:17.934Z,60.16
2019-02-12T11:45:08.673Z,60.66
2019-02-12T11:47:57.984Z,61.51
2019-02-12T11:50:48.293Z,62.20
2019-02-12T11:53:37.905Z,61.20
2019-02-12T11:56:27.163Z,61.86
2019-02-12T11:59:16.485Z,60.62
2019-02-12T12:02:05.846Z,59.41
2019-02-12T12:04:54.775Z,59.30
2019-02-12T12:07:44.703Z,60.20
2019-02-12T12:10:33.846Z,60.02
2019-02-12T12:13:23.169Z,59.49
2019-02-12T12:16:12.518Z,59.88
2019-02-12T12:19:01.900Z,59.96
2019-02-12T12:21:51.785Z,59.65
2019-02-12T12:24:40.836Z,59.57
2019-02-12T12:27:30.295Z,59.68
2019-02-12T12:30:19.738Z,59.97
2019-02-12T12:33:08.536Z,59.49
2019-02-12T12:35:58.055Z,60.41
2019-02-12T12:38:47.350Z,60.11
2019-02-12T12:41:36.670Z,59.56
2019-02-12T12:44:25.706Z,58.85
2019-02-12T12:47:15.309Z,58.98
2019-02-12T12:50:05.555Z,59.49
2019-02-12T12:52:55.745Z,59.55
2019-02-12T12:55:45.361Z,58.98
2019-02-12T12:58:34.703Z,57.97
2019-02-12T13:01:24.298Z,59.04
2019-02-12T13:03:57.547Z,59.63
2019-02-12T13:06:28.559Z,58.85
2019-02-12T13:08:59.850Z,58.68
2019-02-12T13:11:30.982Z,57.73
2019-02-12T13:14:01.998Z,58.72
2019-02-12T13:16:33.178Z,58.21
2019-02-12T13:19:04.182Z,58.57
2019-02-12T13:21:35.182Z,58.36
2019-02-12T13:24:06.348Z,57.54
2019-02-12T13:26:37.359Z,56.79
2019-02-12T13:29:08.354Z,57.45
2019-02-12T13:31:39.416Z,56.11
2019-02-12T13:34:10.420Z,55.94
2019-02-12T13:36:41.873Z,56.30
2019-02-12T13:39:13.303Z,55.68
2019-02-12T13:41:44.386Z,54.80
2019-02-12T13:44:15.632Z,55.67
2019-02-12T13:46:46.821Z,55.80
2019-02-12T13:49:17.952Z,57.77
2019-02-12T13:51:48.957Z,59.69
2019-02-12T13:54:20.918Z,60.90
2019-02-12T13:56:52.006Z,58.95
2019-02-12T13:59:23.386Z,57.22
2019-02-12T14:01:54.687Z,55.18
2019-02-12T14:04:25.836Z,57.37
2019-02-12T14:06:56.996Z,56.49
2019-02-12T14:09:28.474Z,56.25
2019-02-12T14:11:59.642Z,55.33
2019-02-12T14:14:31.184Z,54.01
2019-02-12T14:17:03.642Z,56.34
2019-02-12T14:19:34.760Z,56.82
2019-02-12T14:22:05.995Z,58.83
2019-02-12T14:24:37.145Z,60.18
2019-02-12T14:27:08.239Z,62.20
2019-02-12T14:29:39.595Z,62.84
2019-02-12T14:32:10.616Z,62.88
2019-02-12T14:34:42.088Z,63.58
2019-02-12T14:37:13.176Z,63.59
2019-02-12T14:39:44.899Z,64.14
2019-02-12T14:42:16.100Z,64.10
2019-02-12T14:44:47.652Z,64.18
2019-02-12T14:47:18.859Z,63.96
2019-02-12T14:49:49.975Z,64.99
2019-02-12T14:52:29.081Z,63.52
2019-02-12T14:55:07.789Z,64.34
2019-02-12T14:57:38.924Z,64.12
2019-02-12T15:00:12.746Z,64.88
2019-02-12T15:02:43.847Z,65.33
2019-02-12T15:05:33.051Z,65.38
2019-02-12T15:08:22.452Z,66.83
2019-02-12T15:11:12.254Z,66.15
2019-02-12T15:14:01.809Z,66.80
2019-02-12T15:16:51.654Z,67.25
2019-02-12T15:19:40.517Z,67.85
2019-02-12T15:22:30.270Z,67.42
2019-02-12T15:25:19.742Z,66.47
2019-02-12T15:28:08.659Z,66.85
2019-02-12T15:30:58.569Z,65.51
2019-02-12T15:33:48.518Z,66.10
2019-02-12T15:36:37.606Z,66.52
2019-02-12T15:39:26.986Z,66.45
2019-02-12T15:42:16.295Z,66.47
2019-02-12T15:45:06.426Z,67.62
2019-02-12T15:47:56.118Z,67.27
2019-02-12T15:50:48.363Z,65.53
2019-02-12T15:53:37.587Z,67.26
2019-02-12T15:56:27.852Z,67.64
2019-02-12T15:59:16.973Z,67.40
2019-02-12T16:02:06.025Z,67.57
2019-02-12T16:04:55.411Z,67.54
2019-02-12T16:07:47.484Z,67.22
2019-02-12T16:10:37.513Z,67.95
2019-02-12T16:13:26.181Z,67.94
2019-02-12T16:16:15.895Z,69.46
2019-02-12T16:19:09.571Z,69.39
2019-02-12T16:21:59.303Z,70.31
2019-02-12T16:24:49.045Z,69.23
2019-02-12T16:27:38.422Z,70.18
2019-02-12T16:30:27.971Z,69.59
2019-02-12T16:33:17.130Z,69.75
2019-02-12T16:36:06.715Z,69.41
2019-02-12T16:38:56.075Z,70.09
2019-02-12T16:41:46.021Z,70.63
2019-02-12T16:44:35.750Z,70.97
2019-02-12T16:47:25.555Z,70.49
2019-02-12T16:50:14.874Z,72.16
2019-02-12T16:53:04.402Z,71.40
2019-02-12T16:55:54.231Z,71.90
2019-02-12T16:58:44.858Z,71.01
2019-02-12T17:01:34.190Z,70.83
2019-02-12T17:04:23.639Z,70.71
2019-02-12T17:07:13.114Z,70.48
2019-02-12T17:10:02.809Z,70.77
2019-02-12T17:12:52.314Z,71.22
2019-02-12T17:15:41.825Z,71.35
2019-02-12T17:18:31.615Z,71.19
2019-02-12T17:21:21.225Z,70.75
2019-02-12T17:24:10.622Z,70.22
2019-02-12T17:26:59.685Z,71.09
2019-02-12T17:29:48.856Z,71.17
2019-02-12T17:32:38.426Z,71.63
2019-02-12T17:35:27.705Z,71.27
2019-02-12T17:38:16.769Z,71.76
2019-02-12T17:41:06.230Z,71.02
2019-02-12T17:43:55.834Z,71.83
2019-02-12T17:46:45.221Z,71.43
2019-02-12T17:49:35.085Z,72.19
2019-02-12T17:52:24.022Z,72.62
2019-02-12T17:55:13.626Z,72.85
2019-02-12T17:58:02.992Z,72.21
2019-02-12T18:00:53.289Z,71.20
2019-02-12T18:03:42.698Z,70.21
2019-02-12T18:06:32.392Z,71.31
2019-02-12T18:09:21.811Z,71.56
2019-02-12T18:12:11.453Z,71.87
2019-02-12T18:15:01.060Z,71.69
2019-02-12T18:17:50.434Z,74.87
2019-02-12T18:20:39.586Z,73.50
2019-02-12T18:23:28.986Z,73.50
2019-02-12T18:26:18.279Z,74.34
2019-02-12T18:29:08.024Z,74.40
2019-02-12T18:31:56.864Z,75.74
2019-02-12T18:34:46.662Z,75.67
2019-02-12T18:37:36.138Z,76.42
2019-02-12T18:40:25.785Z,76.02
2019-02-12T18:43:15.148Z,76.28
2019-02-12T18:46:05.106Z,75.75
2019-02-12T18:48:54.277Z,75.12
2019-02-12T18:51:44.030Z,74.89
2019-02-12T18:54:33.676Z,76.38
2019-02-12T18:57:23.751Z,75.92
2019-02-12T19:00:15.633Z,76.52
2019-02-12T19:03:05.518Z,76.13
2019-02-12T19:05:55.168Z,76.12
2019-02-12T19:08:46.125Z,76.63
2019-02-12T19:11:36.101Z,76.83
2019-02-12T19:14:29.839Z,76.39
2019-02-12T19:17:19.755Z,75.69
2019-02-12T19:20:10.675Z,74.90
2019-02-12T19:23:01.138Z,75.72
2019-02-12T19:25:51.042Z,74.78
2019-02-12T19:28:40.564Z,75.02
2019-02-12T19:31:30.481Z,74.73
2019-02-12T19:34:20.248Z,75.28
2019-02-12T19:37:09.780Z,75.75
2019-02-12T19:39:59.467Z,76.28
2019-02-12T19:42:48.774Z,75.59
2019-02-12T19:45:38.244Z,75.33
2019-02-12T19:48:29.143Z,75.18
2019-02-12T19:51:18.462Z,73.44
2019-02-12T19:54:08.096Z,73.17
2019-02-12T19:56:58.500Z,74.45
2019-02-12T19:59:48.982Z,77.21
2019-02-12T20:02:38.293Z,80.24
2019-02-12T20:05:30.132Z,77.97
2019-02-12T20:08:19.442Z,78.48
2019-02-12T20:11:09.171Z,79.06
2019-02-12T20:13:58.922Z,78.41
2019-02-12T20:16:48.570Z,79.94
2019-02-12T20:19:37.579Z,80.24
2019-02-12T20:22:27.191Z,81.10
2019-02-12T20:25:36.975Z,81.55
2019-02-12T20:28:26.719Z,81.23
2019-02-12T20:31:16.044Z,81.64
2019-02-12T20:34:05.634Z,80.86
2019-02-12T20:36:54.714Z,80.57
2019-02-12T20:39:44.293Z,80.52
2019-02-12T20:42:33.869Z,80.34
2019-02-12T20:45:23.698Z,80.44
2019-02-12T20:48:12.892Z,80.21
2019-02-12T20:51:04.841Z,80.04
2019-02-12T20:53:54.395Z,80.15
2019-02-12T20:56:43.809Z,80.91
2019-02-12T20:59:33.761Z,80.37
2019-02-12T21:02:23.512Z,79.99
2019-02-12T21:05:14.136Z,80.06
2019-02-12T21:08:03.513Z,79.00
2019-02-12T21:10:52.435Z,79.93
2019-02-12T21:13:42.256Z,79.29
2019-02-12T21:16:31.739Z,77.27
2019-02-12T21:19:21.933Z,76.47
2019-02-12T21:22:10.887Z,76.17
2019-02-12T21:25:00.353Z,76.17
2019-02-12T21:27:50.115Z,75.92
2019-02-12T21:30:39.474Z,76.73
2019-02-12T21:33:28.716Z,76.30
2019-02-12T21:36:23.726Z,76.43
2019-02-12T21:39:13.695Z,76.08
2019-02-12T21:42:03.138Z,75.14
2019-02-12T21:44:52.024Z,74.83
2019-02-12T21:47:41.726Z,74.71
2019-02-12T21:50:33.404Z,75.18
2019-02-12T21:53:22.700Z,74.60
2019-02-12T21:56:11.918Z,73.50
2019-02-12T21:59:01.204Z,73.24
2019-02-12T22:01:50.681Z,72.94
2019-02-12T22:04:40.232Z,73.04
2019-02-12T22:07:29.536Z,73.13
2019-02-12T22:10:19.091Z,74.33
2019-02-12T22:13:08.349Z,72.30
2019-02-12T22:15:57.742Z,71.49
2019-02-12T22:18:47.039Z,73.25
2019-02-12T22:21:36.332Z,73.22
2019-02-12T22:24:25.601Z,72.38
2019-02-12T22:27:15.324Z,71.74
2019-02-12T22:30:04.406Z,74.01
2019-02-12T22:32:53.494Z,74.22
2019-02-12T22:35:43.105Z,74.98
2019-02-12T22:38:32.505Z,75.79
2019-02-12T22:41:21.834Z,75.14
2019-02-12T22:44:11.940Z,74.68
2019-02-12T22:47:04.640Z,73.97
2019-02-12T22:49:53.418Z,75.19
2019-02-12T22:52:42.717Z,76.42
2019-02-12T22:55:35.343Z,76.36
2019-02-12T22:58:28.064Z,76.79
2019-02-12T23:01:19.494Z,78.07
2019-02-12T23:04:09.280Z,78.31
2019-02-12T23:06:58.766Z,78.26
2019-02-12T23:09:58.247Z,78.62
2019-02-12T23:12:47.745Z,77.79
2019-02-12T23:15:36.791Z,74.03
2019-02-12T23:18:25.883Z,74.45
2019-02-12T23:21:15.357Z,75.06
2019-02-12T23:24:05.244Z,75.22
2019-02-12T23:26:54.672Z,74.32
2019-02-12T23:29:44.438Z,73.65
2019-02-12T23:32:33.853Z,73.57
2019-02-12T23:35:23.082Z,74.52
2019-02-12T23:38:12.543Z,74.55
2019-02-12T23:41:06.158Z,76.43
2019-02-12T23:43:55.666Z,78.20
2019-02-12T23:46:46.839Z,79.18
2019-02-12T23:49:36.444Z,79.65
2019-02-12T23:52:26.260Z,80.08
2019-02-12T23:55:15.499Z,79.95
2019-02-12T23:58:06.233Z,80.83
